Terminal Aerodrome Forecast
Issued by NWS

Home | Current Version | Previous Version | Text Only | Print | Product List | Glossary On
Versions: 1 2 3 4 5 6 7 8 9 10 11 12 13 14
000
FTUS42 KTBW 240149 AAA
TAFLAL
TAF AMD
KLAL 240149Z 2402/2424 04005KT P6SM SCT045 BKN250
     FM241100 04003KT P6SM SCT020 BKN035
     FM241600 05008KT P6SM VCTS SCT025CB BKN100
      AMD NOT SKED 2402/2411=

USA.gov is the U.S. government's official web portal to all federal, state and local government web resources and services.